Terminal Aerodrome Forecast
Issued by NWS

Home | Current Version | Previous Version | Graphics & Text | Print | Product List | Glossary On
Versions: 1 2 3 4 5 6 7 8 9 10 11 12 13 14 15 16 17 18 19
000
FTUS43 KICT 140750 AAA
TAFSLN
TAF AMD
KSLN 140750Z 1408/1506 15005KT P6SM OVC028
     FM141200 19009KT P6SM OVC035
     FM141500 23013KT P6SM OVC035
     FM141800 28009KT P6SM SCT035
     FM150000 22009KT P6SM BKN250=

USA.gov is the U.S. government's official web portal to all federal, state and local government web resources and services.